< < Back
Terminal Aerodrome Forecast


Current Version              Previous Versions:   1  2  3  4  5  6  7  8  9  

Terminal Aerodrome Forecast

263
FTUS42 KJAX 292300
TAFGNV
TAF
KGNV 292320Z 3000/3024 30010G15KT P6SM SKC
     FM300300 00000KT P6SM SKC
     FM300800 VRB02KT 5SM BR FEW010
     FM301400 33006KT P6SM FEW060=

Latest METAR

449
SAUS70 KWBC 300056
MTRGNV
METAR KGNV 300053Z 28004KT 10SM CLR 28/21 A2992 RMK AO2 SLP130
T02780206


USA.gov is the U.S. government's official web portal to all federal, state and local government web resources and services.